createdAt,value
2018-08-16T00:01:38.392Z,6.80
2018-08-16T00:04:06.565Z,8.33
2018-08-16T00:06:34.737Z,7.13
2018-08-16T00:09:02.965Z,9.10
2018-08-16T00:11:31.085Z,6.90
2018-08-16T00:13:59.201Z,7.37
2018-08-16T00:16:27.377Z,8.03
2018-08-16T00:18:55.470Z,7.03
2018-08-16T00:21:23.605Z,6.57
2018-08-16T00:23:51.687Z,9.10
2018-08-16T00:26:19.927Z,8.93
2018-08-16T00:28:48.034Z,6.63
2018-08-16T00:31:16.205Z,6.47
2018-08-16T00:33:44.375Z,7.13
2018-08-16T00:36:12.461Z,7.10
2018-08-16T00:38:40.552Z,12.53
2018-08-16T00:41:08.670Z,7.00
2018-08-16T00:43:36.772Z,8.87
2018-08-16T00:46:05.881Z,7.27
2018-08-16T00:48:33.965Z,7.73
2018-08-16T00:51:02.100Z,6.67
2018-08-16T00:53:30.281Z,7.20
2018-08-16T00:55:58.377Z,6.87
2018-08-16T00:58:26.498Z,8.43
2018-08-16T01:00:54.580Z,7.13
2018-08-16T01:03:22.675Z,7.40
2018-08-16T01:05:50.772Z,7.80
2018-08-16T01:08:18.885Z,7.60
2018-08-16T01:10:46.982Z,7.10
2018-08-16T01:13:15.081Z,7.53
2018-08-16T01:15:43.157Z,7.00
2018-08-16T01:18:11.274Z,6.83
2018-08-16T01:20:39.405Z,7.50
2018-08-16T01:23:07.560Z,7.47
2018-08-16T01:25:35.660Z,7.80
2018-08-16T01:28:03.774Z,7.60
2018-08-16T01:30:31.921Z,6.40
2018-08-16T01:33:00.061Z,6.90
2018-08-16T01:35:28.238Z,6.70
2018-08-16T01:37:56.281Z,7.53
2018-08-16T01:40:24.353Z,6.67
2018-08-16T01:42:52.438Z,7.20
2018-08-16T01:45:21.348Z,6.73
2018-08-16T01:47:49.424Z,7.30
2018-08-16T01:50:17.541Z,8.50
2018-08-16T01:52:45.668Z,6.57
2018-08-16T01:55:13.806Z,6.70
2018-08-16T01:57:41.957Z,6.77
2018-08-16T02:00:10.336Z,7.40
2018-08-16T02:02:38.728Z,6.97
2018-08-16T02:05:07.201Z,6.93
2018-08-16T02:07:35.300Z,7.83
2018-08-16T02:10:03.713Z,7.57
2018-08-16T02:12:31.838Z,8.00
2018-08-16T02:14:59.928Z,6.93
2018-08-16T02:17:28.121Z,7.17
2018-08-16T02:19:56.224Z,9.57
2018-08-16T02:22:24.438Z,10.33
2018-08-16T02:24:52.541Z,7.60
2018-08-16T02:27:20.660Z,8.30
2018-08-16T02:29:48.769Z,7.50
2018-08-16T02:32:16.892Z,7.60
2018-08-16T02:34:45.019Z,7.67
2018-08-16T02:37:13.172Z,8.37
2018-08-16T02:39:41.778Z,6.90
2018-08-16T02:42:09.909Z,7.43
2018-08-16T02:44:38.003Z,8.27
2018-08-16T02:47:06.109Z,8.47
2018-08-16T02:49:34.251Z,8.27
2018-08-16T02:52:02.438Z,7.90
2018-08-16T02:54:30.596Z,7.97
2018-08-16T02:56:58.888Z,7.73
2018-08-16T02:59:26.984Z,9.90
2018-08-16T03:01:55.122Z,7.63
2018-08-16T03:04:23.268Z,10.03
2018-08-16T03:06:51.360Z,8.03
2018-08-16T03:09:19.457Z,8.43
2018-08-16T03:11:47.537Z,10.97
2018-08-16T03:14:15.713Z,8.30
2018-08-16T03:16:43.798Z,10.57
2018-08-16T03:19:11.905Z,7.97
2018-08-16T03:21:40.093Z,10.47
2018-08-16T03:24:08.212Z,9.37
2018-08-16T03:26:36.329Z,9.17
2018-08-16T03:29:05.439Z,8.37
2018-08-16T03:31:33.667Z,12.47
2018-08-16T03:34:01.797Z,8.63
2018-08-16T03:36:29.917Z,10.47
2018-08-16T03:38:58.025Z,9.07
2018-08-16T03:41:26.116Z,9.43
2018-08-16T03:43:54.269Z,8.43
2018-08-16T03:46:22.366Z,10.30
2018-08-16T03:48:50.474Z,10.80
2018-08-16T03:51:18.589Z,11.20
2018-08-16T03:53:46.672Z,9.77
2018-08-16T03:56:14.761Z,8.53
2018-08-16T03:58:42.856Z,9.53
2018-08-16T04:01:11.022Z,11.17
2018-08-16T04:03:39.188Z,13.03
2018-08-16T04:06:07.420Z,15.33
2018-08-16T04:08:35.525Z,9.07
2018-08-16T04:11:03.722Z,9.53
2018-08-16T04:13:31.840Z,9.17
2018-08-16T04:16:00.064Z,10.93
2018-08-16T04:18:28.187Z,9.00
2018-08-16T04:20:56.277Z,13.57
2018-08-16T04:23:24.351Z,10.37
2018-08-16T04:25:52.605Z,11.57
2018-08-16T04:28:20.697Z,10.93
2018-08-16T04:30:48.877Z,10.13
2018-08-16T04:33:17.032Z,9.93
2018-08-16T04:35:45.136Z,12.43
2018-08-16T04:38:13.227Z,13.17
2018-08-16T04:40:41.340Z,11.33
2018-08-16T04:43:09.472Z,10.37
2018-08-16T04:45:37.793Z,10.83
2018-08-16T04:48:06.528Z,10.20
2018-08-16T04:50:34.653Z,11.50
2018-08-16T04:53:03.103Z,12.23
2018-08-16T04:55:31.278Z,11.30
2018-08-16T04:57:59.771Z,16.23
2018-08-16T05:00:27.908Z,10.13
2018-08-16T05:02:56.016Z,14.10
2018-08-16T05:05:24.159Z,13.40
2018-08-16T05:07:52.316Z,13.53
2018-08-16T05:10:20.457Z,10.07
2018-08-16T05:12:48.644Z,11.23
2018-08-16T05:15:16.805Z,10.47
2018-08-16T05:17:45.933Z,13.40
2018-08-16T05:20:14.121Z,11.33
2018-08-16T05:22:42.539Z,12.77
2018-08-16T05:25:10.764Z,12.87
2018-08-16T05:27:38.884Z,10.17
2018-08-16T05:30:09.170Z,10.47
2018-08-16T05:32:37.361Z,14.83
2018-08-16T05:35:05.949Z,12.13
2018-08-16T05:37:34.485Z,15.13
2018-08-16T05:40:02.806Z,11.43
2018-08-16T05:42:31.021Z,15.90
2018-08-16T05:44:59.164Z,13.60
2018-08-16T05:47:27.331Z,13.20
2018-08-16T05:49:55.453Z,18.10
2018-08-16T05:52:23.564Z,12.57
2018-08-16T05:54:51.717Z,15.60
2018-08-16T05:57:19.821Z,12.93
2018-08-16T05:59:47.948Z,12.63
2018-08-16T06:02:22.670Z,19.00
2018-08-16T06:04:50.765Z,15.13
2018-08-16T06:07:18.923Z,11.40
2018-08-16T06:09:47.012Z,13.73
2018-08-16T06:12:15.160Z,12.10
2018-08-16T06:14:43.492Z,11.43
2018-08-16T06:17:11.620Z,11.50
2018-08-16T06:19:39.762Z,10.97
2018-08-16T06:22:07.908Z,11.23
2018-08-16T06:24:36.123Z,10.17
2018-08-16T06:27:04.253Z,12.87
2018-08-16T06:29:32.370Z,10.30
2018-08-16T06:32:00.717Z,10.73
2018-08-16T06:34:28.889Z,10.93
2018-08-16T06:36:57.162Z,10.27
2018-08-16T06:39:25.324Z,14.33
2018-08-16T06:41:53.456Z,10.43
2018-08-16T06:44:21.572Z,12.77
2018-08-16T06:46:49.692Z,11.93
2018-08-16T06:49:17.880Z,11.57
2018-08-16T06:51:45.969Z,10.40
2018-08-16T06:54:14.073Z,13.80
2018-08-16T06:56:42.189Z,12.03
2018-08-16T06:59:10.364Z,10.63
2018-08-16T07:01:38.476Z,12.47
2018-08-16T07:04:06.598Z,10.30
2018-08-16T07:06:34.813Z,11.17
2018-08-16T07:09:03.065Z,10.73
2018-08-16T07:11:31.260Z,12.10
2018-08-16T07:13:59.380Z,15.03
2018-08-16T07:16:27.525Z,12.00
2018-08-16T07:18:55.612Z,12.97
2018-08-16T07:21:23.817Z,12.63
2018-08-16T07:23:51.912Z,11.03
2018-08-16T07:26:20.015Z,10.80
2018-08-16T07:28:48.134Z,11.37
2018-08-16T07:31:16.247Z,12.43
2018-08-16T07:33:44.375Z,10.87
2018-08-16T07:36:12.538Z,11.17
2018-08-16T07:38:40.649Z,12.43
2018-08-16T07:41:08.753Z,12.10
2018-08-16T07:43:36.979Z,11.43
2018-08-16T07:46:05.093Z,15.30
2018-08-16T07:48:33.281Z,12.97
2018-08-16T07:51:01.459Z,13.53
2018-08-16T07:53:30.009Z,14.73
2018-08-16T07:55:58.105Z,13.80
2018-08-16T07:58:26.200Z,14.67
2018-08-16T08:00:54.281Z,15.30
2018-08-16T08:03:22.404Z,15.10
2018-08-16T08:05:50.493Z,16.80
2018-08-16T08:08:18.717Z,15.73
2018-08-16T08:10:46.889Z,16.37
2018-08-16T08:13:15.063Z,16.77
2018-08-16T08:15:43.152Z,16.47
2018-08-16T08:18:11.343Z,18.33
2018-08-16T08:20:39.468Z,16.67
2018-08-16T08:23:07.601Z,14.90
2018-08-16T08:25:35.714Z,16.70
2018-08-16T08:28:03.913Z,16.60
2018-08-16T08:30:32.145Z,16.20
2018-08-16T08:33:00.275Z,16.13
2018-08-16T08:35:28.377Z,17.47
2018-08-16T08:38:04.521Z,16.87
2018-08-16T08:40:32.696Z,15.47
2018-08-16T08:43:00.903Z,16.87
2018-08-16T08:45:29.034Z,14.20
2018-08-16T08:47:58.049Z,14.07
2018-08-16T08:50:26.628Z,16.23
2018-08-16T08:53:04.944Z,14.97
2018-08-16T08:55:44.548Z,18.13
2018-08-16T08:58:24.140Z,14.40
2018-08-16T09:00:52.280Z,14.23
2018-08-16T09:03:20.481Z,12.93
2018-08-16T09:05:48.649Z,12.67
2018-08-16T09:08:16.744Z,11.93
2018-08-16T09:11:53.974Z,12.70
2018-08-16T09:14:33.797Z,12.87
2018-08-16T09:17:01.941Z,11.97
2018-08-16T09:19:30.064Z,11.10
2018-08-16T09:21:58.242Z,10.33
2018-08-16T09:24:26.310Z,14.53
2018-08-16T09:26:54.425Z,9.73
2018-08-16T09:29:40.217Z,13.60
2018-08-16T09:33:22.545Z,12.00
2018-08-16T09:35:50.662Z,7.90
2018-08-16T09:38:18.725Z,9.03
2018-08-16T09:40:46.849Z,9.80
2018-08-16T09:43:14.972Z,11.57
2018-08-16T09:47:02.875Z,7.43
2018-08-16T09:49:32.459Z,8.33
2018-08-16T09:52:00.698Z,5.17
2018-08-16T09:54:28.822Z,6.27
2018-08-16T09:56:58.100Z,7.57
2018-08-16T09:59:26.192Z,6.27
2018-08-16T10:01:54.371Z,6.90
2018-08-16T10:04:22.486Z,5.13
2018-08-16T10:06:50.590Z,6.63
2018-08-16T10:09:20.018Z,5.73
2018-08-16T10:11:48.477Z,6.50
2018-08-16T10:14:16.884Z,7.30
2018-08-16T10:16:45.017Z,5.37
2018-08-16T10:19:13.121Z,5.97
2018-08-16T10:21:41.369Z,4.50
2018-08-16T10:24:09.568Z,9.97
2018-08-16T10:26:37.713Z,8.40
2018-08-16T10:29:06.586Z,6.37
2018-08-16T10:31:34.773Z,6.30
2018-08-16T10:34:03.049Z,7.83
2018-08-16T10:36:31.281Z,5.67
2018-08-16T10:38:59.532Z,6.57
2018-08-16T10:41:28.089Z,5.43
2018-08-16T10:43:56.250Z,4.40
2018-08-16T10:46:24.532Z,4.00
2018-08-16T10:48:52.713Z,5.73
2018-08-16T10:51:20.800Z,8.43
2018-08-16T10:53:48.912Z,4.93
2018-08-16T10:56:17.056Z,4.70
2018-08-16T10:58:45.182Z,4.33
2018-08-16T11:01:13.314Z,7.00
2018-08-16T11:03:41.366Z,5.03
2018-08-16T11:06:09.465Z,14.63
2018-08-16T11:08:37.644Z,5.13
2018-08-16T11:11:06.274Z,4.90
2018-08-16T11:13:34.385Z,4.33
2018-08-16T11:16:02.534Z,4.20
2018-08-16T11:18:31.673Z,4.57
2018-08-16T11:20:59.892Z,5.93
2018-08-16T11:23:28.021Z,4.80
2018-08-16T11:25:56.124Z,6.30
2018-08-16T11:28:24.277Z,5.23
2018-08-16T11:30:52.382Z,4.03
2018-08-16T11:33:20.506Z,7.43
2018-08-16T11:35:48.669Z,4.93
2018-08-16T11:38:16.773Z,4.40
2018-08-16T11:40:45.161Z,4.80
2018-08-16T11:43:13.339Z,4.97
2018-08-16T11:45:41.655Z,5.23
2018-08-16T11:48:09.826Z,4.47
2018-08-16T11:50:38.326Z,4.07
2018-08-16T11:53:06.709Z,4.97
2018-08-16T11:55:35.184Z,5.70
2018-08-16T11:58:03.582Z,4.40
2018-08-16T12:00:31.858Z,8.13
2018-08-16T12:03:00.286Z,5.33
2018-08-16T12:05:28.899Z,4.30
2018-08-16T12:07:56.976Z,4.60
2018-08-16T12:10:25.111Z,4.50
2018-08-16T12:12:53.303Z,7.50
2018-08-16T12:15:22.158Z,5.77
2018-08-16T12:17:50.164Z,4.90
2018-08-16T12:20:18.257Z,5.53
2018-08-16T12:22:46.401Z,4.43
2018-08-16T12:25:14.532Z,5.43
2018-08-16T12:27:42.737Z,4.77
2018-08-16T12:30:10.941Z,5.50
2018-08-16T12:32:39.097Z,6.40
2018-08-16T12:35:07.969Z,4.60
2018-08-16T12:37:36.218Z,4.50
2018-08-16T12:40:06.472Z,4.13
2018-08-16T12:42:34.704Z,6.53
2018-08-16T12:45:02.977Z,4.73
2018-08-16T12:47:31.154Z,4.33
2018-08-16T12:49:59.323Z,5.43
2018-08-16T12:52:27.468Z,4.80
2018-08-16T12:54:55.714Z,5.53
2018-08-16T12:57:23.813Z,4.50
2018-08-16T12:59:51.972Z,4.20
2018-08-16T13:02:20.148Z,10.43
2018-08-16T13:04:48.236Z,4.03
2018-08-16T13:07:17.091Z,8.60
2018-08-16T13:09:45.193Z,3.80
2018-08-16T13:12:13.309Z,6.57
2018-08-16T13:14:41.434Z,7.30
2018-08-16T13:17:09.584Z,5.90
2018-08-16T13:19:37.705Z,5.67
2018-08-16T13:22:07.289Z,4.60
2018-08-16T13:24:35.618Z,6.53
2018-08-16T13:27:03.796Z,4.70
2018-08-16T13:29:32.994Z,6.23
2018-08-16T13:32:01.153Z,3.77
2018-08-16T13:34:29.350Z,4.67
2018-08-16T13:36:57.483Z,3.87
2018-08-16T13:39:25.593Z,9.37
2018-08-16T13:41:53.730Z,3.83
2018-08-16T13:44:21.830Z,8.63
2018-08-16T13:46:50.068Z,3.83
2018-08-16T13:49:18.233Z,4.03
2018-08-16T13:51:46.396Z,3.80
2018-08-16T13:54:14.509Z,4.33
2018-08-16T13:56:42.658Z,4.00
2018-08-16T13:59:10.756Z,6.77
2018-08-16T14:01:38.989Z,4.03
2018-08-16T14:04:07.079Z,3.93
2018-08-16T14:06:35.249Z,4.53
2018-08-16T14:09:04.394Z,4.33
2018-08-16T14:11:32.624Z,4.37
2018-08-16T14:14:00.894Z,4.23
2018-08-16T14:16:29.011Z,3.60
2018-08-16T14:18:57.225Z,4.03
2018-08-16T14:21:25.312Z,3.80
2018-08-16T14:23:53.665Z,4.57
2018-08-16T14:26:21.760Z,3.93
2018-08-16T14:28:49.858Z,4.07
2018-08-16T14:31:17.979Z,5.20
2018-08-16T14:33:46.097Z,6.40
2018-08-16T14:36:14.176Z,3.53
2018-08-16T14:38:42.413Z,4.77
2018-08-16T14:41:10.548Z,4.13
2018-08-16T14:43:38.712Z,4.30
2018-08-16T14:46:06.956Z,4.77
2018-08-16T14:48:35.133Z,3.70
2018-08-16T14:51:03.376Z,3.53
2018-08-16T14:53:31.497Z,4.07
2018-08-16T14:55:59.630Z,3.17
2018-08-16T14:58:27.717Z,7.57
2018-08-16T15:00:55.846Z,3.70
2018-08-16T15:03:24.089Z,4.10
2018-08-16T15:05:52.221Z,3.70
2018-08-16T15:08:20.301Z,3.57
2018-08-16T15:10:48.517Z,3.93
2018-08-16T15:13:16.570Z,4.77
2018-08-16T15:15:44.713Z,3.63
2018-08-16T15:18:13.101Z,3.97
2018-08-16T15:20:41.204Z,3.50
2018-08-16T15:23:09.348Z,4.40
2018-08-16T15:25:37.544Z,3.80
2018-08-16T15:28:05.795Z,3.60
2018-08-16T15:30:34.071Z,3.97
2018-08-16T15:33:02.266Z,4.27
2018-08-16T15:35:30.408Z,3.53
2018-08-16T15:37:58.528Z,5.57
2018-08-16T15:40:26.654Z,4.10
2018-08-16T15:42:54.789Z,4.10
2018-08-16T15:45:23.002Z,5.17
2018-08-16T15:47:51.223Z,5.20
2018-08-16T15:50:19.505Z,6.20
2018-08-16T15:52:47.621Z,3.70
2018-08-16T15:55:15.805Z,4.83
2018-08-16T15:57:44.033Z,3.17
2018-08-16T16:00:12.305Z,3.70
2018-08-16T16:02:41.930Z,3.40
2018-08-16T16:05:10.289Z,3.80
2018-08-16T16:07:38.418Z,3.37
2018-08-16T16:10:07.472Z,3.40
2018-08-16T16:12:35.832Z,3.30
2018-08-16T16:15:04.945Z,4.10
2018-08-16T16:17:33.254Z,4.00
2018-08-16T16:20:01.357Z,5.47
2018-08-16T16:22:29.521Z,3.33
2018-08-16T16:24:57.615Z,3.53
2018-08-16T16:27:25.725Z,3.57
2018-08-16T16:29:54.005Z,3.80
2018-08-16T16:32:22.152Z,3.50
2018-08-16T16:34:50.279Z,5.83
2018-08-16T16:37:18.372Z,5.27
2018-08-16T16:39:46.463Z,3.53
2018-08-16T16:42:14.595Z,3.93
2018-08-16T16:44:42.672Z,3.37
2018-08-16T16:47:11.192Z,3.57
2018-08-16T16:49:39.361Z,5.43
2018-08-16T16:52:07.841Z,4.30
2018-08-16T16:54:35.996Z,7.40
2018-08-16T16:57:04.139Z,11.00
2018-08-16T16:59:32.455Z,3.00
2018-08-16T17:02:00.818Z,3.87
2018-08-16T17:04:28.968Z,5.93
2018-08-16T17:06:57.284Z,4.07
2018-08-16T17:09:25.397Z,4.23
2018-08-16T17:11:53.475Z,20.13
2018-08-16T17:14:21.619Z,11.80
2018-08-16T17:16:49.704Z,28.57
2018-08-16T17:19:17.864Z,25.03
2018-08-16T17:21:45.948Z,26.70
2018-08-16T17:24:14.629Z,17.97
2018-08-16T17:26:42.704Z,9.13
2018-08-16T17:29:10.817Z,10.30
2018-08-16T17:31:38.908Z,7.70
2018-08-16T17:34:08.025Z,6.47
2018-08-16T17:36:36.143Z,12.37
2018-08-16T17:39:06.018Z,6.67
2018-08-16T17:41:34.481Z,6.17
2018-08-16T17:44:02.621Z,9.10
2018-08-16T17:46:30.935Z,9.37
2018-08-16T17:48:59.488Z,7.80
2018-08-16T17:51:27.572Z,5.40
2018-08-16T17:53:56.560Z,7.33
2018-08-16T17:56:25.233Z,4.60
2018-08-16T17:58:53.358Z,5.20
2018-08-16T18:01:21.529Z,5.20
2018-08-16T18:03:49.626Z,5.03
2018-08-16T18:06:17.741Z,4.40
2018-08-16T18:08:45.829Z,6.77
2018-08-16T18:11:13.986Z,5.03
2018-08-16T18:13:42.089Z,4.80
2018-08-16T18:16:10.244Z,5.47
2018-08-16T18:18:38.444Z,4.53
2018-08-16T18:21:06.612Z,6.93
2018-08-16T18:23:34.757Z,4.97
2018-08-16T18:26:02.917Z,10.23
2018-08-16T18:28:31.071Z,9.63
2018-08-16T18:30:59.209Z,5.00
2018-08-16T18:33:27.291Z,5.57
2018-08-16T18:35:55.451Z,9.63
2018-08-16T18:38:23.527Z,9.30
2018-08-16T18:40:51.616Z,7.50
2018-08-16T18:43:19.700Z,9.23
2018-08-16T18:45:54.089Z,8.53
2018-08-16T18:48:22.252Z,5.57
2018-08-16T18:50:50.395Z,8.50
2018-08-16T18:53:18.515Z,7.50
2018-08-16T18:55:46.623Z,10.13
2018-08-16T18:58:14.745Z,8.97
2018-08-16T19:00:42.845Z,8.27
2018-08-16T19:03:10.970Z,8.30
2018-08-16T19:05:39.314Z,8.13
2018-08-16T19:08:07.407Z,8.23
2018-08-16T19:10:35.553Z,8.90
2018-08-16T19:13:03.700Z,6.43
2018-08-16T19:15:31.885Z,9.67
2018-08-16T19:18:00.053Z,11.60
2018-08-16T19:20:28.191Z,11.83
2018-08-16T19:22:56.304Z,10.53
2018-08-16T19:25:24.429Z,11.07
2018-08-16T19:27:52.553Z,9.90
2018-08-16T19:30:20.692Z,13.07
2018-08-16T19:32:48.831Z,10.40
2018-08-16T19:35:17.028Z,8.67
2018-08-16T19:37:45.161Z,14.80
2018-08-16T19:40:13.313Z,11.30
2018-08-16T19:42:41.516Z,12.97
2018-08-16T19:45:09.872Z,13.23
2018-08-16T19:47:37.992Z,11.43
2018-08-16T19:50:07.720Z,10.53
2018-08-16T19:52:35.913Z,10.43
2018-08-16T19:55:04.604Z,13.90
2018-08-16T19:57:32.762Z,11.83
2018-08-16T20:00:00.949Z,13.33
2018-08-16T20:02:29.101Z,12.40
2018-08-16T20:04:57.296Z,12.97
2018-08-16T20:07:25.421Z,11.37
2018-08-16T20:09:53.671Z,16.03
2018-08-16T20:12:21.807Z,11.73
2018-08-16T20:14:50.005Z,11.90
2018-08-16T20:17:18.215Z,13.07
2018-08-16T20:19:57.446Z,12.30
2018-08-16T20:22:25.644Z,12.70
2018-08-16T20:24:54.172Z,10.23
2018-08-16T20:27:22.586Z,11.47
2018-08-16T20:29:51.088Z,11.37
2018-08-16T20:32:19.504Z,14.77
2018-08-16T20:34:48.160Z,11.80
2018-08-16T20:37:16.411Z,10.73
2018-08-16T20:39:44.621Z,10.33
2018-08-16T20:42:13.126Z,13.13
2018-08-16T20:44:41.781Z,12.80
2018-08-16T20:47:10.363Z,12.67
2018-08-16T20:49:38.750Z,12.40
2018-08-16T20:52:08.341Z,11.63
2018-08-16T20:54:36.495Z,11.40
2018-08-16T20:57:05.387Z,11.50
2018-08-16T20:59:38.487Z,15.77
2018-08-16T21:02:07.305Z,11.07
2018-08-16T21:04:42.951Z,10.40
2018-08-16T21:07:11.725Z,11.13
2018-08-16T21:09:40.326Z,12.50
2018-08-16T21:12:09.307Z,13.23
2018-08-16T21:14:37.416Z,17.80
2018-08-16T21:17:05.915Z,12.40
2018-08-16T21:19:34.211Z,11.10
2018-08-16T21:22:04.044Z,12.30
2018-08-16T21:24:32.469Z,10.43
2018-08-16T21:27:00.859Z,10.33
2018-08-16T21:29:29.212Z,10.07
2018-08-16T21:31:58.431Z,11.80
2018-08-16T21:34:26.628Z,10.10
2018-08-16T21:36:55.965Z,10.30
2018-08-16T21:39:24.246Z,9.87
2018-08-16T21:41:52.436Z,9.70
2018-08-16T21:44:20.692Z,7.37
2018-08-16T21:46:48.900Z,9.43
2018-08-16T21:49:17.060Z,8.23
2018-08-16T21:51:45.184Z,6.60
2018-08-16T21:54:14.126Z,8.23
2018-08-16T21:56:42.270Z,6.97
2018-08-16T21:59:10.743Z,8.00
2018-08-16T22:01:40.185Z,7.63
2018-08-16T22:04:08.940Z,9.27
2018-08-16T22:06:48.514Z,8.13
2018-08-16T22:09:16.598Z,8.60
2018-08-16T22:11:44.852Z,8.07
2018-08-16T22:14:12.952Z,13.07
2018-08-16T22:16:41.072Z,7.83
2018-08-16T22:19:09.204Z,8.27
2018-08-16T22:21:37.355Z,10.23
2018-08-16T22:24:05.578Z,8.23
2018-08-16T22:26:33.704Z,9.23
2018-08-16T22:29:01.837Z,11.70
2018-08-16T22:31:30.062Z,8.60
2018-08-16T22:33:58.111Z,8.60
2018-08-16T22:36:26.233Z,9.17
2018-08-16T22:38:54.320Z,8.47
2018-08-16T22:41:22.411Z,8.53
2018-08-16T22:43:50.590Z,9.70
2018-08-16T22:46:18.663Z,8.97
2018-08-16T22:48:46.762Z,9.30
2018-08-16T22:51:14.877Z,9.00
2018-08-16T22:53:43.008Z,10.40
2018-08-16T22:56:11.229Z,10.47
2018-08-16T22:58:39.348Z,9.43
2018-08-16T23:01:07.580Z,9.77
2018-08-16T23:03:35.692Z,10.17
2018-08-16T23:06:03.823Z,9.87
2018-08-16T23:08:31.958Z,9.87
2018-08-16T23:11:00.092Z,12.60
2018-08-16T23:13:28.188Z,9.50
2018-08-16T23:15:56.323Z,9.17
2018-08-16T23:18:24.486Z,8.70
2018-08-16T23:20:52.595Z,10.30
2018-08-16T23:23:20.684Z,10.33
2018-08-16T23:25:48.769Z,10.07
2018-08-16T23:28:16.857Z,10.37
2018-08-16T23:30:44.960Z,10.13
2018-08-16T23:33:13.084Z,10.40
2018-08-16T23:35:41.193Z,10.27
2018-08-16T23:38:09.307Z,11.77
2018-08-16T23:40:37.436Z,11.93
2018-08-16T23:43:05.545Z,10.83
2018-08-16T23:45:33.688Z,10.17
2018-08-16T23:48:13.220Z,9.93
2018-08-16T23:50:41.345Z,10.10
2018-08-16T23:53:09.428Z,10.73
2018-08-16T23:55:37.574Z,11.93
2018-08-16T23:58:05.713Z,11.17
